Time;durP1;ratioP1;P1;durP2;ratioP2;P2;SDS_P1;SDS_P2;PMS_P1;PMS_P2;Temp;Humidity;BMP_temperature;BMP_pressure;BME280_temperature;BME280_humidity;BME280_pressure;Samples;Min_cycle;Max_cycle;Signal;HPM_P1;HPM_P2
2022/08/15 00:00:34;;;;;;;22.70;2.47;;;;;;;25.93;58.51;98475.91;7314683;19;129145;-39
2022/08/15 00:02:59;;;;;;;36.05;3.08;;;;;;;25.97;58.70;98493.75;7313250;19;129156;-38
2022/08/15 00:05:25;;;;;;;17.13;1.53;;;;;;;25.99;59.49;98491.75;7315003;19;129368;-37
2022/08/15 00:07:52;;;;;;;12.33;1.37;;;;;;;25.87;55.54;98497.75;7314058;19;128815;-37
2022/08/15 00:10:19;;;;;;;21.05;1.98;;;;;;;25.60;54.03;98499.41;7313961;19;129691;-38
2022/08/15 00:12:45;;;;;;;34.60;2.92;;;;;;;25.60;55.71;98475.72;7311599;19;129174;-37
2022/08/15 00:15:14;;;;;;;20.13;2.27;;;;;;;25.82;58.38;98482.53;7313812;19;129548;-39
2022/08/15 00:17:40;;;;;;;15.43;1.60;;;;;;;25.89;57.84;98479.94;7313702;19;129248;-39
2022/08/15 00:20:09;;;;;;;21.42;2.13;;;;;;;25.95;58.80;98474.69;7314227;19;129140;-38
2022/08/15 00:22:35;;;;;;;33.17;2.88;;;;;;;25.97;57.34;98472.69;7313057;19;129578;-39
2022/08/15 00:25:00;;;;;;;17.87;1.77;;;;;;;26.00;57.63;98476.78;7315244;19;130284;-38
2022/08/15 00:27:25;;;;;;;15.40;1.67;;;;;;;25.99;57.75;98481.22;7314105;19;129090;-39
2022/08/15 00:29:51;;;;;;;19.10;1.93;;;;;;;26.01;58.41;98489.78;7314604;19;128994;-37
2022/08/15 00:32:23;;;;;;;31.63;2.77;;;;;;;26.00;59.31;98482.84;7313076;19;129016;-41
2022/08/15 00:34:49;;;;;;;22.85;2.10;;;;;;;26.00;58.50;98474.94;7312916;19;131118;-38
2022/08/15 00:37:15;;;;;;;14.67;1.50;;;;;;;26.01;58.41;98479.25;7313819;19;129401;-38
2022/08/15 00:39:41;;;;;;;16.10;1.73;;;;;;;26.01;58.15;98479.25;7313384;19;129482;-38
2022/08/15 00:42:08;;;;;;;30.93;2.70;;;;;;;26.00;59.03;98474.16;7312571;19;129179;-39
2022/08/15 00:44:41;;;;;;;17.98;1.70;;;;;;;25.99;60.02;98470.69;7311808;19;130597;-39
2022/08/15 00:47:10;;;;;;;23.05;2.45;;;;;;;25.99;59.17;98475.94;7313382;19;129404;-39
2022/08/15 00:49:36;;;;;;;17.73;1.77;;;;;;;26.00;58.38;98466.25;7314223;19;129373;-37
2022/08/15 00:52:10;;;;;;;43.93;3.77;;;;;;;26.02;59.68;98470.31;7311850;19;129245;-37
2022/08/15 00:54:47;;;;;;;33.58;3.00;;;;;;;25.95;59.26;98464.16;7310652;19;130445;-40
2022/08/15 00:57:39;;;;;;;26.23;2.67;;;;;;;25.58;53.42;98472.47;7313913;19;128947;-40
2022/08/15 01:00:18;;;;;;;22.98;2.03;;;;;;;25.65;57.77;98468.84;7312448;19;128975;-40
2022/08/15 01:02:45;;;;;;;17.17;1.83;;;;;;;25.81;57.57;98456.41;7313239;19;130012;-38
2022/08/15 01:05:14;;;;;;;13.68;1.60;;;;;;;25.90;58.30;98458.66;7312866;19;129848;-38
2022/08/15 01:07:41;;;;;;;2.70;0.70;;;;;;;25.94;58.41;98449.38;7312081;19;129495;-38
2022/08/15 01:10:07;;;;;;;21.25;2.00;;;;;;;25.98;57.66;98453.25;7312030;19;128929;-38
2022/08/15 01:12:33;;;;;;;17.13;1.63;;;;;;;26.00;58.42;98445.97;7310918;19;129862;-40
2022/08/15 01:15:08;;;;;;;5.23;0.83;;;;;;;26.01;58.36;98447.63;7312410;19;130162;-38
2022/08/15 01:17:34;;;;;;;18.13;1.92;;;;;;;26.00;58.63;98451.22;7312078;19;129096;-39
2022/08/15 01:20:11;;;;;;;36.20;3.30;;;;;;;26.01;59.79;98449.41;7313178;19;129303;-37
2022/08/15 01:23:12;;;;;;;34.65;3.03;;;;;;;26.01;60.19;98447.63;7311164;19;131330;-36
2022/08/15 01:25:43;;;;;;;27.35;2.55;;;;;;;26.00;58.54;98440.69;7311827;19;131169;-38
2022/08/15 01:28:13;;;;;;;36.95;3.47;;;;;;;26.01;58.91;98450.28;7310450;19;129275;-38
2022/08/15 01:30:53;;;;;;;15.40;1.63;;;;;;;26.02;59.47;98443.16;7313479;19;129391;-38
2022/08/15 01:33:19;;;;;;;18.98;1.85;;;;;;;26.02;58.37;98448.44;7309466;19;130606;-38
2022/08/15 01:35:46;;;;;;;;;;;;;;;26.07;60.50;98449.47;7311623;19;129968;-39
2022/08/15 01:38:41;;;;;;;17.60;1.90;;;;;;;26.05;60.09;98455.97;7311955;19;128818;-37
2022/08/15 01:41:11;;;;;;;14.30;1.55;;;;;;;26.04;60.22;98452.50;7311236;19;129189;-39
2022/08/15 01:43:46;;;;;;;40.15;3.38;;;;;;;26.03;59.45;98450.88;7309414;19;130776;-38
2022/08/15 01:46:13;;;;;;;14.23;1.48;;;;;;;25.60;53.72;98444.13;7311819;19;129460;-40
2022/08/15 01:48:47;;;;;;;13.88;1.38;;;;;;;25.64;55.60;98440.09;7312219;19;129550;-38
2022/08/15 01:51:15;;;;;;;18.38;1.73;;;;;;;25.82;57.99;98448.31;7311508;19;129360;-37
2022/08/15 01:53:56;;;;;;;17.00;1.83;;;;;;;25.91;59.81;98449.78;7308012;19;129474;-39
2022/08/15 01:56:34;;;;;;;15.43;1.58;;;;;;;25.95;59.51;98464.16;7310585;19;129439;-38
2022/08/15 01:59:04;;;;;;;38.33;3.22;;;;;;;25.98;58.25;98457.72;7311473;19;129154;-37
2022/08/15 02:01:44;;;;;;;34.05;3.67;;;;;;;26.00;59.96;98456.50;7310713;19;129364;-37
2022/08/15 02:04:13;;;;;;;15.98;1.83;;;;;;;26.00;58.77;98453.84;7310289;19;129433;-39
2022/08/15 02:06:40;;;;;;;14.75;1.60;;;;;;;26.01;57.13;98452.91;7310830;19;131022;-38
2022/08/15 02:09:08;;;;;;;16.98;1.83;;;;;;;26.01;58.09;98458.16;7311532;19;129595;-38
2022/08/15 02:11:33;;;;;;;56.40;5.03;;;;;;;26.02;58.26;98433.44;7310626;19;129451;-38
2022/08/15 02:13:59;;;;;;;13.27;1.57;;;;;;;26.00;58.61;98429.38;7308824;19;129245;-39
2022/08/15 02:16:35;;;;;;;15.47;1.67;;;;;;;26.03;59.78;98424.53;7310645;19;129623;-37
2022/08/15 02:19:06;;;;;;;15.98;1.60;;;;;;;25.96;57.91;98421.03;7311722;19;129214;-37
2022/08/15 02:21:32;;;;;;;36.85;3.63;;;;;;;26.02;58.22;98433.44;7309596;19;128843;-38
2022/08/15 02:23:58;;;;;;;21.10;2.10;;;;;;;25.96;57.88;98423.66;7308409;19;129258;-38
2022/08/15 02:26:24;;;;;;;19.33;2.05;;;;;;;26.03;58.41;98439.53;7310916;19;130213;-37
2022/08/15 02:28:50;;;;;;;13.77;1.55;;;;;;;26.07;58.18;98443.38;7310057;19;128958;-38
2022/08/15 02:31:21;;;;;;;17.07;1.70;;;;;;;26.05;58.21;98438.31;7309640;19;129268;-38
2022/08/15 02:33:54;;;;;;;39.20;3.47;;;;;;;25.65;54.33;98421.47;7307021;19;129610;-40
2022/08/15 02:36:20;;;;;;;19.42;1.95;;;;;;;25.60;53.61;98417.81;7310580;19;130265;-40
2022/08/15 02:38:49;;;;;;;15.82;1.65;;;;;;;25.76;56.59;98433.28;7310340;19;129306;-39
2022/08/15 02:41:28;;;;;;;19.02;1.80;;;;;;;25.88;59.48;98421.22;7315276;19;129134;-38
2022/08/15 02:43:54;;;;;;;14.90;1.58;;;;;;;25.94;57.46;98420.41;7315830;19;129169;-38
2022/08/15 02:46:20;;;;;;;37.03;3.10;;;;;;;25.99;57.04;98417.19;7316995;19;131167;-41
2022/08/15 02:48:49;;;;;;;3.63;0.80;;;;;;;26.00;58.31;98418.84;7318258;19;129443;-39
2022/08/15 02:51:16;;;;;;;20.60;2.05;;;;;;;26.01;58.39;98429.19;7315600;19;129245;-38
2022/08/15 02:53:46;;;;;;;24.67;2.55;;;;;;;26.02;58.99;98430.00;7313551;19;129180;-40
2022/08/15 02:56:11;;;;;;;41.53;3.58;;;;;;;25.94;57.70;98409.88;7315593;19;129379;-38
2022/08/15 02:58:37;;;;;;;18.33;2.03;;;;;;;26.02;57.97;98422.09;7317555;19;128929;-38
2022/08/15 03:01:08;;;;;;;16.97;1.83;;;;;;;26.03;58.73;98427.16;7316424;19;129427;-39
2022/08/15 03:03:38;;;;;;;17.45;1.88;;;;;;;26.03;58.20;98429.78;7314541;19;130765;-37
2022/08/15 03:06:07;;;;;;;37.08;3.20;;;;;;;25.96;58.23;98410.50;7315915;19;129599;-37
2022/08/15 03:08:33;;;;;;;28.40;2.65;;;;;;;26.04;57.37;98426.16;7316691;19;129299;-39
2022/08/15 03:10:59;;;;;;;14.43;1.50;;;;;;;26.06;57.83;98423.34;7316348;19;129177;-39
2022/08/15 03:13:25;;;;;;;13.55;1.52;;;;;;;26.04;58.43;98425.34;7313277;19;129318;-39
2022/08/15 03:15:53;;;;;;;16.57;1.87;;;;;;;26.05;58.56;98427.00;7315413;19;130329;-38
2022/08/15 03:18:20;;;;;;;27.58;2.72;;;;;;;26.04;57.69;98426.16;7316261;19;129305;-37
2022/08/15 03:20:46;;;;;;;15.90;1.67;;;;;;;25.87;55.40;98414.28;7316125;19;129125;-37
2022/08/15 03:23:13;;;;;;;15.67;1.60;;;;;;;25.61;53.99;98425.53;7314894;19;130352;-38
2022/08/15 03:25:45;;;;;;;34.05;3.00;;;;;;;25.71;56.57;98422.53;7314875;19;129605;-39
2022/08/15 03:28:11;;;;;;;31.23;2.95;;;;;;;25.86;57.43;98423.22;7317016;19;128949;-40
2022/08/15 03:30:37;;;;;;;14.87;1.73;;;;;;;25.94;57.93;98424.88;7316495;19;129011;-40
2022/08/15 03:33:04;;;;;;;13.50;1.65;;;;;;;25.97;58.40;98422.66;7313255;19;129293;-39
2022/08/15 03:35:36;;;;;;;23.02;2.28;;;;;;;25.99;58.60;98423.28;7314665;19;131162;-40
2022/08/15 03:38:02;;;;;;;32.47;2.95;;;;;;;26.02;57.61;98419.44;7315273;19;128882;-39
2022/08/15 03:40:28;;;;;;;15.87;1.73;;;;;;;26.03;58.35;98416.63;7315671;19;128837;-38
2022/08/15 03:43:22;;;;;;;14.88;1.52;;;;;;;26.02;58.06;98417.63;7313697;19;130777;-36
2022/08/15 03:45:51;;;;;;;19.15;2.20;;;;;;;25.94;58.53;98404.63;7314302;19;130060;-39
2022/08/15 03:48:18;;;;;;;16.33;1.83;;;;;;;26.01;58.22;98418.66;7315027;19;129546;-38
2022/08/15 03:50:45;;;;;;;35.63;3.17;;;;;;;26.04;57.97;98426.16;7313594;19;129293;-37
2022/08/15 03:53:11;;;;;;;14.60;1.63;;;;;;;26.03;57.58;98415.81;7313264;19;130056;-40
2022/08/15 03:55:38;;;;;;;20.65;2.15;;;;;;;26.05;58.13;98414.59;7314443;19;129475;-37
2022/08/15 03:58:05;;;;;;;18.10;2.13;;;;;;;26.04;58.44;98415.63;7314375;19;128887;-38
2022/08/15 04:00:34;;;;;;;37.33;3.22;;;;;;;26.05;58.76;98416.44;7314255;19;128788;-37
2022/08/15 04:03:13;;;;;;;33.92;2.97;;;;;;;26.05;59.58;98424.34;7311564;19;129176;-41
2022/08/15 04:05:41;;;;;;;17.77;1.95;;;;;;;26.07;57.47;98417.03;7311543;19;129399;-38
2022/08/15 04:08:09;;;;;;;15.68;1.83;;;;;;;26.06;58.77;98418.06;7314237;19;129057;-38
2022/08/15 04:10:34;;;;;;;20.00;2.28;;;;;;;25.67;54.11;98419.47;7314102;19;129234;-38
2022/08/15 04:13:01;;;;;;;32.60;3.00;;;;;;;25.59;53.57;98424.06;7312142;19;129637;-38
2022/08/15 04:15:27;;;;;;;;;;;;;;;25.83;58.76;98418.34;7315606;19;129035;-41
2022/08/15 04:17:53;;;;;;;13.35;1.45;;;;;;;25.90;57.84;98413.09;7314376;19;129804;-38
2022/08/15 04:20:19;;;;;;;16.40;1.90;;;;;;;25.96;58.29;98421.03;7314012;19;129133;-37
2022/08/15 04:22:47;;;;;;;31.73;3.03;;;;;;;25.92;58.65;98408.44;7313263;19;129503;-39
2022/08/15 04:25:15;;;;;;;21.90;2.45;;;;;;;26.00;56.88;98414.34;7314738;19;129377;-37
2022/08/15 04:27:41;;;;;;;15.05;1.60;;;;;;;26.01;57.24;98416.03;7314505;19;129002;-37
2022/08/15 04:30:08;;;;;;;14.75;1.80;;;;;;;26.01;57.96;98425.72;7314220;19;129396;-38
2022/08/15 04:32:34;;;;;;;39.60;3.42;;;;;;;25.94;57.97;98404.63;7312558;19;129804;-37
2022/08/15 04:35:00;;;;;;;18.73;2.17;;;;;;;26.04;57.49;98412.19;7314236;19;130569;-40
2022/08/15 04:37:27;;;;;;;13.80;1.70;;;;;;;26.02;58.28;98407.09;7313262;19;128818;-37
2022/08/15 04:39:53;;;;;;;27.17;3.10;;;;;;;26.05;57.94;98411.19;7313086;19;129071;-38
2022/08/15 04:42:19;;;;;;;41.73;3.47;;;;;;;25.97;58.77;98391.03;7312848;19;130181;-40
2022/08/15 04:44:48;;;;;;;14.13;1.58;;;;;;;26.06;59.13;98402.25;7310951;19;129811;-38
2022/08/15 04:47:15;;;;;;;7.68;1.20;;;;;;;25.97;58.90;98401.59;7313422;19;128896;-37
2022/08/15 04:49:41;;;;;;;17.75;1.85;;;;;;;26.05;58.41;98416.44;7313313;19;129343;-37
2022/08/15 04:52:17;;;;;;;30.73;2.95;;;;;;;26.04;59.53;98420.91;7312238;19;129170;-39
2022/08/15 04:54:43;;;;;;;36.42;3.25;;;;;;;26.04;58.28;98420.06;7310464;19;129399;-39
2022/08/15 04:57:09;;;;;;;5.87;0.90;;;;;;;25.97;55.67;98416.56;7313423;19;129104;-38
2022/08/15 04:59:36;;;;;;;;;;;;;;;25.61;53.42;98408.91;7313405;19;129143;-39
2022/08/15 05:02:03;;;;;;;20.10;1.92;;;;;;;25.69;54.57;98409.56;7310529;19;130228;-38
2022/08/15 05:04:28;;;;;;;22.92;2.38;;;;;;;25.83;57.12;98407.81;7309942;19;129214;-38
2022/08/15 05:06:53;;;;;;;20.27;2.17;;;;;;;25.93;57.72;98410.91;7312737;19;128873;-37
2022/08/15 05:09:19;;;;;;;15.70;1.73;;;;;;;25.98;58.02;98405.03;7312561;19;128823;-40
2022/08/15 05:11:44;;;;;;;17.73;1.87;;;;;;;26.00;57.88;98406.44;7311694;19;129181;-37
2022/08/15 05:14:09;;;;;;;28.83;2.77;;;;;;;26.02;58.20;98401.84;7310042;19;129426;-38
2022/08/15 05:16:35;;;;;;;14.67;1.63;;;;;;;25.96;57.86;98386.81;7312471;19;129642;-37
2022/08/15 05:19:01;;;;;;;13.80;1.67;;;;;;;26.05;58.33;98400.66;7312518;19;129102;-37
2022/08/15 05:21:28;;;;;;;52.23;4.67;;;;;;;26.04;58.44;98399.81;7311015;19;130029;-43
2022/08/15 05:23:54;;;;;;;20.48;2.13;;;;;;;26.04;58.07;98393.72;7311095;19;129381;-39
2022/08/15 05:26:20;;;;;;;17.47;1.80;;;;;;;25.99;59.00;98389.03;7312336;19;129089;-39
2022/08/15 05:28:45;;;;;;;4.70;0.83;;;;;;;26.05;57.84;98403.28;7312290;19;128936;-37
2022/08/15 05:31:11;;;;;;;30.70;2.77;;;;;;;26.05;58.21;98404.06;7311763;19;129654;-38
2022/08/15 05:33:38;;;;;;;17.87;1.83;;;;;;;26.05;57.84;98400.66;7310680;19;130346;-37
2022/08/15 05:36:06;;;;;;;19.45;2.15;;;;;;;26.04;59.27;98402.47;7311834;19;129667;-39
2022/08/15 05:38:50;;;;;;;4.85;0.90;;;;;;;26.07;60.70;98404.69;7312062;19;128836;-37
2022/08/15 05:41:26;;;;;;;17.92;1.90;;;;;;;26.08;59.89;98405.50;7312179;19;129495;-41
2022/08/15 05:44:10;;;;;;;29.42;2.63;;;;;;;26.08;60.78;98405.50;7309308;19;129942;-38
2022/08/15 05:47:16;;;;;;;34.97;3.10;;;;;;;25.65;53.84;98416.22;7310864;19;128769;-37
2022/08/15 05:49:58;;;;;;;15.63;1.73;;;;;;;25.68;56.41;98409.75;7311309;19;128865;-37
2022/08/15 05:52:39;;;;;;;15.55;1.77;;;;;;;25.87;59.39;98403.75;7309834;19;129307;-37
2022/08/15 05:55:24;;;;;;;28.27;2.85;;;;;;;25.94;59.75;98409.06;7311154;19;129404;-41
2022/08/15 05:58:00;;;;;;;27.50;2.50;;;;;;;25.97;58.50;98414.75;7311211;19;129020;-37
2022/08/15 06:00:27;;;;;;;43.33;3.80;;;;;;;26.01;57.56;98410.75;7310644;19;128941;-39
2022/08/15 06:02:58;;;;;;;17.17;1.92;;;;;;;26.02;58.52;98415.00;7310400;19;129142;-39
2022/08/15 06:05:29;;;;;;;19.50;2.17;;;;;;;26.02;58.13;98407.09;7311320;19;129621;-37
2022/08/15 06:07:58;;;;;;;15.32;1.67;;;;;;;26.03;58.04;98411.34;7310328;19;129241;-39
2022/08/15 06:10:33;;;;;;;26.77;2.63;;;;;;;26.05;60.09;98417.25;7311133;19;128851;-39
2022/08/15 06:13:14;;;;;;;20.80;2.30;;;;;;;26.04;59.15;98423.53;7309124;19;129313;-40
2022/08/15 06:15:46;;;;;;;38.53;3.53;;;;;;;26.05;59.65;98424.34;7316851;19;129287;-39
2022/08/15 06:18:14;;;;;;;14.80;1.60;;;;;;;26.04;58.00;98420.91;7318768;19;128935;-37
2022/08/15 06:20:51;;;;;;;17.33;1.98;;;;;;;26.04;59.11;98420.91;7318473;19;129437;-37
2022/08/15 06:23:17;;;;;;;14.23;1.67;;;;;;;26.05;58.38;98419.88;7316322;19;130496;-37
2022/08/15 06:26:00;;;;;;;24.27;2.50;;;;;;;26.09;60.44;98425.56;7317014;19;131094;-39
2022/08/15 06:28:44;;;;;;;32.70;2.92;;;;;;;26.05;58.50;98419.88;7316653;19;128926;-36
2022/08/15 06:31:22;;;;;;;29.23;2.85;;;;;;;26.07;59.82;98417.03;7316519;19;129140;-38
2022/08/15 06:33:59;;;;;;;32.60;2.90;;;;;;;26.07;59.93;98430.22;7315557;19;129694;-37
2022/08/15 06:36:41;;;;;;;30.52;3.05;;;;;;;25.64;53.91;98419.03;7317062;19;129585;-39
2022/08/15 06:39:40;;;;;;;16.55;1.77;;;;;;;25.70;58.22;98418.28;7317972;19;129062;-38
2022/08/15 06:42:13;;;;;;;21.10;2.35;;;;;;;25.85;58.68;98411.03;7316413;19;129285;-39
2022/08/15 06:44:38;;;;;;;21.02;2.30;;;;;;;25.92;57.46;98409.25;7315223;19;130121;-38
2022/08/15 06:47:05;;;;;;;15.23;1.63;;;;;;;25.99;58.17;98419.81;7316375;19;129775;-41
2022/08/15 06:49:36;;;;;;;;;;;;;;;26.07;59.67;98422.31;7317587;19;129143;-38
2022/08/15 06:52:02;;;;;;;35.63;3.00;;;;;;;26.04;58.25;98420.91;7316921;19;129046;-37
2022/08/15 06:54:28;;;;;;;14.60;1.67;;;;;;;25.95;58.26;98406.22;7315669;19;129851;-38
2022/08/15 06:57:16;;;;;;;14.48;1.63;;;;;;;26.04;59.93;98407.72;7316100;19;129512;-39
2022/08/15 07:00:03;;;;;;;17.85;1.90;;;;;;;26.05;59.95;98405.91;7316575;19;129014;-37
2022/08/15 07:02:54;;;;;;;17.85;1.80;;;;;;;26.05;59.75;98417.25;7315877;19;129165;-38
2022/08/15 07:05:41;;;;;;;30.00;3.08;;;;;;;26.06;59.14;98418.06;7315840;19;129665;-40
2022/08/15 07:08:35;;;;;;;10.35;1.33;;;;;;;26.07;59.90;98409.13;7316476;19;131451;-38
2022/08/15 07:11:24;;;;;;;18.92;2.00;;;;;;;26.06;59.90;98402.25;7316219;19;129056;-38
2022/08/15 07:13:55;;;;;;;18.33;1.98;;;;;;;26.05;60.07;98396.16;7314358;19;129093;-38
2022/08/15 07:16:30;;;;;;;15.50;1.70;;;;;;;25.96;59.47;98389.44;7315151;19;130094;-39
2022/08/15 07:18:59;;;;;;;17.90;1.75;;;;;;;26.03;58.78;98398.19;7315868;19;129467;-37
2022/08/15 07:21:25;;;;;;;38.22;3.35;;;;;;;26.02;58.57;98391.31;7314817;19;129339;-38
2022/08/15 07:23:59;;;;;;;14.87;1.70;;;;;;;25.80;55.88;98383.69;7314641;19;128892;-40
2022/08/15 07:26:28;;;;;;;17.98;2.10;;;;;;;25.62;54.10;98397.34;7313221;19;131044;-38
2022/08/15 07:28:57;;;;;;;16.55;1.73;;;;;;;25.71;55.84;98393.56;7315735;19;129295;-37
2022/08/15 07:31:33;;;;;;;29.08;2.67;;;;;;;25.84;59.30;98388.34;7315230;19;129528;-40
2022/08/15 07:34:24;;;;;;;28.77;2.67;;;;;;;25.95;59.77;98389.63;7313401;19;129195;-39
2022/08/15 07:37:04;;;;;;;31.65;3.03;;;;;;;25.93;59.24;98371.41;7314007;19;130152;-39
2022/08/15 07:39:39;;;;;;;18.67;1.98;;;;;;;26.00;59.42;98376.69;7314894;19;129482;-38
2022/08/15 07:42:11;;;;;;;3.42;0.80;;;;;;;26.03;59.61;98382.38;7315684;19;128828;-41
2022/08/15 07:44:36;;;;;;;10.73;1.23;;;;;;;26.03;57.88;98382.38;7313416;19;129127;-36
2022/08/15 07:47:13;;;;;;;16.67;1.90;;;;;;;26.05;59.53;98388.25;7314884;19;131084;-39
2022/08/15 07:49:40;;;;;;;18.23;1.90;;;;;;;26.04;58.27;98386.66;7315154;19;129692;-37
2022/08/15 07:52:15;;;;;;;38.83;3.50;;;;;;;26.05;60.17;98384.84;7314685;19;128886;-39
2022/08/15 07:55:11;;;;;;;26.70;2.42;;;;;;;25.99;60.19;98378.50;7312836;19;128810;-37
2022/08/15 07:57:39;;;;;;;35.58;3.17;;;;;;;26.05;58.92;98384.84;7315432;19;130204;-38
2022/08/15 08:00:13;;;;;;;14.77;1.58;;;;;;;26.03;59.96;98382.38;7314947;19;129387;-38
2022/08/15 08:02:53;;;;;;;18.38;1.85;;;;;;;26.03;59.60;98387.66;7314110;19;129127;-36
2022/08/15 08:05:23;;;;;;;18.05;2.10;;;;;;;25.95;58.44;98368.56;7314778;19;128817;-36
2022/08/15 08:07:50;;;;;;;16.23;1.70;;;;;;;25.95;58.08;98364.09;7314429;19;129490;-37
2022/08/15 08:10:24;;;;;;;;;;;;;;;26.11;60.00;98384.03;7315259;19;130014;-38
2022/08/15 08:13:06;;;;;;;17.30;1.83;;;;;;;25.58;53.83;98362.72;7315275;19;129303;-39
2022/08/15 08:15:50;;;;;;;15.63;1.63;;;;;;;25.57;53.45;98366.34;7315301;19;128734;-40
2022/08/15 08:18:58;;;;;;;9.45;1.10;;;;;;;25.84;59.25;98372.56;7315383;19;130732;-39
2022/08/15 08:21:39;;;;;;;40.83;3.65;;;;;;;25.93;58.54;98370.56;7313775;19;129512;-37
2022/08/15 08:24:17;;;;;;;24.88;2.28;;;;;;;25.98;59.51;98366.31;7312746;19;128887;-39
2022/08/15 08:26:53;;;;;;;19.73;1.90;;;;;;;26.00;58.81;98372.22;7313822;19;128889;-40
2022/08/15 08:29:45;;;;;;;14.45;1.70;;;;;;;25.94;59.14;98362.47;7315097;19;129401;-37
2022/08/15 08:32:38;;;;;;;15.32;1.75;;;;;;;25.95;59.95;98353.56;7313914;19;130448;-41
2022/08/15 08:35:21;;;;;;;18.60;2.10;;;;;;;26.02;57.86;98374.69;7311993;19;129165;-40
2022/08/15 08:38:15;;;;;;;20.10;2.28;;;;;;;26.03;60.06;98371.84;7314049;19;129375;-37
2022/08/15 08:44:06;;;;;;;33.85;2.92;;;;;;;26.04;59.92;98373.47;7312400;19;128998;-38
2022/08/15 08:47:00;;;;;;;36.95;3.17;;;;;;;26.02;58.61;98375.50;7313692;19;128874;-39
2022/08/15 08:49:47;;;;;;;36.65;3.28;;;;;;;26.04;60.37;98373.47;7311161;19;129364;-37
2022/08/15 08:52:38;;;;;;;35.35;3.15;;;;;;;26.04;60.17;98378.75;7312439;19;130898;-37
2022/08/15 08:55:08;;;;;;;35.17;3.15;;;;;;;26.03;58.63;98371.06;7309803;19;129568;-37
2022/08/15 08:57:44;;;;;;;29.92;2.80;;;;;;;26.04;60.15;98370.84;7315130;19;129051;-38
2022/08/15 09:00:12;;;;;;;19.65;2.13;;;;;;;26.01;56.87;98378.31;7313222;19;128915;-38
2022/08/15 09:02:43;;;;;;;7.57;0.98;;;;;;;25.61;53.54;98372.06;7312350;19;129188;-38
2022/08/15 09:05:17;;;;;;;7.95;1.35;;;;;;;25.68;56.09;98373.69;7313230;19;129178;-39
2022/08/15 09:07:49;;;;;;;24.73;2.22;;;;;;;25.83;58.34;98381.47;7311802;19;128919;-38
2022/08/15 09:10:27;;;;;;;30.02;2.78;;;;;;;25.92;58.98;98375.03;7312561;19;128866;-39
2022/08/15 09:15:42;;;;;;;25.73;2.28;;;;;;;25.91;57.70;98352.34;7313120;19;129442;-40
2022/08/15 09:18:14;;;;;;;12.18;1.40;;;;;;;26.01;57.85;98373.88;7312887;19;128903;-38
2022/08/15 09:20:41;;;;;;;14.77;1.60;;;;;;;26.03;56.74;98366.56;7312371;19;129456;-38
2022/08/15 09:23:10;;;;;;;21.65;2.22;;;;;;;26.03;58.98;98371.84;7311347;19;130673;-38
2022/08/15 09:25:43;;;;;;;35.22;3.17;;;;;;;26.01;59.01;98365.13;7311547;19;129405;-39
2022/08/15 09:28:23;;;;;;;19.42;1.98;;;;;;;26.02;60.04;98367.59;7313462;19;129113;-40
2022/08/15 09:30:51;;;;;;;18.23;1.83;;;;;;;26.03;57.95;98366.56;7312946;19;129128;-38
2022/08/15 09:33:33;;;;;;;17.15;1.85;;;;;;;26.04;58.20;98368.22;7309774;19;129892;-39
2022/08/15 09:36:42;;;;;;;15.60;1.65;;;;;;;25.95;59.86;98358.81;7310963;19;129697;-38
2022/08/15 09:39:27;;;;;;;11.10;1.38;;;;;;;26.05;60.41;98364.56;7312263;19;128862;-37
2022/08/15 09:42:05;;;;;;;20.55;2.30;;;;;;;26.04;60.29;98359.50;7311200;19;128882;-40
2022/08/15 09:44:36;;;;;;;14.27;1.58;;;;;;;26.03;58.15;98356.03;7309839;19;129535;-39
2022/08/15 09:47:13;;;;;;;13.50;1.55;;;;;;;26.04;59.97;98355.03;7311011;19;131102;-40
2022/08/15 09:49:43;;;;;;;;;;;;;;;25.63;54.04;98346.34;7316413;19;129226;-37
2022/08/15 09:52:22;;;;;;;42.47;3.65;;;;;;;25.66;54.88;98344.16;7317401;19;129086;-40
2022/08/15 09:54:56;;;;;;;24.60;2.42;;;;;;;25.82;57.92;98339.56;7316598;19;129152;-39
2022/08/15 09:57:28;;;;;;;5.53;0.90;;;;;;;25.93;58.92;98345.06;7319182;19;129323;-37
2022/08/15 10:00:05;;;;;;;20.38;2.15;;;;;;;25.97;59.35;98340.19;7317732;19;128893;-37
2022/08/15 10:02:32;;;;;;;16.35;1.65;;;;;;;25.99;58.77;98344.25;7316557;19;129349;-39
2022/08/15 10:04:57;;;;;;;;;;;;;;;26.04;60.37;98336.59;7315169;19;129439;-39
2022/08/15 10:07:42;;;;;;;27.83;2.53;;;;;;;26.02;59.55;98333.34;7317689;19;129927;-40
2022/08/15 10:10:36;;;;;;;28.10;2.50;;;;;;;25.94;60.39;98322.97;7317701;19;128850;-39
2022/08/15 10:13:07;;;;;;;38.00;3.28;;;;;;;26.00;59.65;98327.44;7316276;19;128883;-39
2022/08/15 10:15:41;;;;;;;15.80;1.70;;;;;;;26.02;59.09;98325.44;7317838;19;129313;-37
2022/08/15 10:18:22;;;;;;;16.73;1.75;;;;;;;26.02;60.34;98333.34;7317529;19;130226;-40
2022/08/15 10:20:55;;;;;;;26.85;2.92;;;;;;;26.02;59.32;98322.81;7312946;19;128848;-37
2022/08/15 10:23:45;;;;;;;17.00;1.90;;;;;;;26.05;60.29;98317.16;7315224;19;129321;-40
2022/08/15 10:26:24;;;;;;;14.88;1.55;;;;;;;26.04;60.14;98312.91;7317314;19;130553;-37
2022/08/15 10:29:17;;;;;;;19.90;1.92;;;;;;;26.04;60.21;98315.53;7311915;19;129343;-39
2022/08/15 10:31:52;;;;;;;19.33;2.22;;;;;;;26.04;59.86;98315.53;7315185;19;129142;-39
2022/08/15 10:34:35;;;;;;;23.50;2.15;;;;;;;26.02;60.07;98307.00;7314677;19;129184;-38
2022/08/15 10:37:21;;;;;;;35.70;3.15;;;;;;;25.85;55.79;98289.13;7316059;19;129235;-37
2022/08/15 10:40:07;;;;;;;30.90;2.70;;;;;;;25.59;53.75;98290.66;7316306;19;130147;-37
2022/08/15 10:42:54;;;;;;;52.00;4.25;;;;;;;25.73;58.29;98279.13;7315685;19;129090;-37
2022/08/15 10:45:22;;;;;;;24.40;2.20;;;;;;;25.86;58.35;98281.03;7316105;19;128957;-37
2022/08/15 10:48:10;;;;;;;19.30;1.85;;;;;;;25.92;59.70;98280.22;7316778;19;129458;-39
2022/08/15 10:51:08;;;;;;;26.85;2.58;;;;;;;25.99;59.55;98281.03;7317206;19;129228;-39
2022/08/15 10:53:39;;;;;;;35.53;3.10;;;;;;;26.00;58.06;98287.94;7314433;19;128815;-39
2022/08/15 10:56:27;;;;;;;18.50;1.98;;;;;;;26.01;60.28;98288.75;7316748;19;129147;-39
2022/08/15 10:59:07;;;;;;;21.02;2.22;;;;;;;26.01;60.00;98286.09;7316420;19;129220;-38
2022/08/15 11:01:33;;;;;;;30.25;3.20;;;;;;;26.01;57.41;98289.59;7313556;19;130359;-40
2022/08/15 11:04:01;;;;;;;;;;;;;;;26.07;59.24;98290.59;7315421;19;129686;-38
2022/08/15 11:06:28;;;;;;;16.90;1.70;;;;;;;26.04;58.49;98280.47;7315558;19;129131;-38
2022/08/15 11:09:04;;;;;;;40.05;3.30;;;;;;;26.04;59.70;98277.84;7315853;19;129877;-39
2022/08/15 11:11:32;;;;;;;37.60;3.78;;;;;;;26.03;57.89;98278.84;7315636;19;130231;-38
2022/08/15 11:14:08;;;;;;;15.20;1.48;;;;;;;26.02;60.01;98291.22;7314830;19;128876;-37
2022/08/15 11:16:36;;;;;;;14.40;1.50;;;;;;;26.02;57.58;98288.56;7315928;19;129389;-37
2022/08/15 11:19:18;;;;;;;16.15;1.75;;;;;;;26.02;59.96;98285.13;7315891;19;130203;-36
2022/08/15 11:21:53;;;;;;;35.50;3.42;;;;;;;26.01;59.87;98288.75;7314599;19;130061;-37
2022/08/15 11:24:28;;;;;;;38.03;3.00;;;;;;;26.01;59.67;98284.34;7313692;19;129497;-39
2022/08/15 11:27:14;;;;;;;26.13;2.45;;;;;;;25.71;54.91;98267.19;7315842;19;128824;-41
2022/08/15 11:29:40;;;;;;;23.88;2.20;;;;;;;25.52;54.06;98273.19;7315846;19;129536;-40
2022/08/15 11:32:06;;;;;;;16.00;1.73;;;;;;;25.73;55.52;98291.50;7315525;19;131054;-38
2022/08/15 11:34:42;;;;;;;18.02;1.67;;;;;;;25.85;58.57;98287.28;7313377;19;129717;-37
2022/08/15 11:37:16;;;;;;;21.25;2.03;;;;;;;25.93;58.98;98292.38;7315438;19;129215;-38
2022/08/15 11:39:50;;;;;;;32.42;2.88;;;;;;;25.97;58.94;98287.50;7315625;19;130120;-39
2022/08/15 11:42:20;;;;;;;14.35;1.45;;;;;;;26.00;58.67;98298.47;7314789;19;130095;-40
2022/08/15 11:45:00;;;;;;;23.25;2.30;;;;;;;26.01;59.55;98299.28;7312406;19;129166;-38
2022/08/15 11:47:28;;;;;;;16.63;1.77;;;;;;;26.00;58.11;98293.19;7316060;19;128937;-38
2022/08/15 11:49:58;;;;;;;16.23;1.58;;;;;;;26.02;57.72;98296.47;7313986;19;129321;-39
2022/08/15 11:52:29;;;;;;;29.70;2.67;;;;;;;26.02;58.37;98290.38;7314056;19;129257;-40